Terminal Aerodrome Forecast
Issued by NWS Cleveland, OH

Home | Current Version | Previous Version | Text Only | Print | Product List | Glossary Off
Versions: 1 2 3 4 5 6 7 8 9 10 11 12 13 14 15 16 17 18

000
FTUS41 KCLE 191000 AAA
TAFERI
TAF AMD
KERI 191002Z 1910/2006 26007KT P6SM OVC025
     FM191200 26010G20KT P6SM SKC
     FM191800 26012G20KT P6SM OVC040
     FM200400 31010KT P6SM OVC100=

USA.gov is the U.S. government's official web portal to all federal, state and local government web resources and services.